createdAt,value
2023-02-23T00:01:56.004Z,42.20
2023-02-23T00:04:29.442Z,45.45
2023-02-23T00:07:10.826Z,41.13
2023-02-23T00:09:37.181Z,41.58
2023-02-23T00:12:09.079Z,37.72
2023-02-23T00:14:38.431Z,41.73
2023-02-23T00:17:10.943Z,39.80
2023-02-23T00:19:37.749Z,40.13
2023-02-23T00:22:04.239Z,41.35
2023-02-23T00:24:31.081Z,41.42
2023-02-23T00:27:06.414Z,43.93
2023-02-23T00:29:38.894Z,42.80
2023-02-23T00:32:05.625Z,42.60
2023-02-23T00:34:35.772Z,40.25
2023-02-23T00:37:04.575Z,42.10
2023-02-23T00:39:30.980Z,44.83
2023-02-23T00:42:02.722Z,46.50
2023-02-23T00:44:29.739Z,43.20
2023-02-23T00:46:56.103Z,44.53
2023-02-23T00:49:23.473Z,46.40
2023-02-23T00:51:54.088Z,43.90
2023-02-23T00:54:22.160Z,44.38
2023-02-23T00:56:52.001Z,44.45
2023-02-23T00:59:38.361Z,43.83
2023-02-23T01:02:08.960Z,43.88
2023-02-23T01:04:35.346Z,43.97
2023-02-23T01:07:04.126Z,41.17
2023-02-23T01:09:30.536Z,49.38
2023-02-23T01:12:01.685Z,50.33
2023-02-23T01:14:34.196Z,46.13
2023-02-23T01:17:01.607Z,46.10
2023-02-23T01:19:29.141Z,46.10
2023-02-23T01:22:03.639Z,49.38
2023-02-23T01:24:30.112Z,47.03
2023-02-23T01:26:56.651Z,44.83
2023-02-23T01:29:29.452Z,52.17
2023-02-23T01:31:56.100Z,45.03
2023-02-23T01:34:23.388Z,46.63
2023-02-23T01:36:50.850Z,45.13
2023-02-23T01:39:20.230Z,49.92
2023-02-23T01:41:46.734Z,48.80
2023-02-23T01:44:20.064Z,48.38
2023-02-23T01:47:06.234Z,46.45
2023-02-23T01:49:34.690Z,49.05
2023-02-23T01:52:42.128Z,49.10
2023-02-23T01:55:13.047Z,48.73
2023-02-23T01:57:41.654Z,50.20
2023-02-23T02:00:15.250Z,48.97
2023-02-23T02:02:41.844Z,45.58
2023-02-23T02:05:14.097Z,47.50
2023-02-23T02:07:47.191Z,48.00
2023-02-23T02:10:13.798Z,48.55
2023-02-23T02:12:54.610Z,51.90
2023-02-23T02:15:38.678Z,50.05
2023-02-23T02:18:53.597Z,51.95
2023-02-23T02:21:47.852Z,47.63
2023-02-23T02:24:35.782Z,44.35
2023-02-23T02:27:21.249Z,46.45
2023-02-23T02:30:18.738Z,50.08
2023-02-23T02:33:19.222Z,50.30
2023-02-23T02:36:08.217Z,43.87
2023-02-23T02:38:54.273Z,46.65
2023-02-23T02:41:51.288Z,44.85
2023-02-23T02:44:23.782Z,48.03
2023-02-23T02:47:00.984Z,52.25
2023-02-23T02:49:48.982Z,46.57
2023-02-23T02:52:37.765Z,50.15
2023-02-23T02:55:14.894Z,45.45
2023-02-23T02:57:53.375Z,47.05
2023-02-23T03:00:53.570Z,44.10
2023-02-23T03:03:54.333Z,47.37
2023-02-23T03:06:56.223Z,49.45
2023-02-23T03:10:04.021Z,52.03
2023-02-23T03:13:20.538Z,43.13
2023-02-23T03:16:35.217Z,47.28
2023-02-23T03:19:47.507Z,46.13
2023-02-23T03:22:43.140Z,46.22
2023-02-23T03:25:51.167Z,49.08
2023-02-23T03:28:48.910Z,51.35
2023-02-23T03:31:53.639Z,46.85
2023-02-23T03:34:45.595Z,49.23
2023-02-23T03:37:38.093Z,52.42
2023-02-23T03:40:39.122Z,51.95
2023-02-23T03:43:31.002Z,51.42
2023-02-23T03:46:23.433Z,44.72
2023-02-23T03:49:14.578Z,47.43
2023-02-23T03:52:03.221Z,47.72
2023-02-23T03:55:12.129Z,46.80
2023-02-23T03:58:00.254Z,51.17
2023-02-23T04:00:51.866Z,49.35
2023-02-23T04:03:39.556Z,51.03
2023-02-23T04:06:41.049Z,49.28
2023-02-23T04:09:39.617Z,49.85
2023-02-23T04:12:52.214Z,49.35
2023-02-23T04:15:38.943Z,41.47
2023-02-23T04:18:14.206Z,52.93
2023-02-23T04:20:41.871Z,46.70
2023-02-23T04:23:14.518Z,47.72
2023-02-23T04:25:48.529Z,43.92
2023-02-23T04:28:23.744Z,48.95
2023-02-23T04:30:55.342Z,53.20
2023-02-23T04:33:22.679Z,50.80
2023-02-23T04:35:58.437Z,46.42
2023-02-23T04:38:24.859Z,43.42
2023-02-23T04:41:02.476Z,42.38
2023-02-23T04:43:31.028Z,52.90
2023-02-23T04:45:57.603Z,46.65
2023-02-23T04:48:26.728Z,46.63
2023-02-23T04:50:57.547Z,50.25
2023-02-23T04:53:24.051Z,51.45
2023-02-23T04:55:57.716Z,44.20
2023-02-23T04:58:24.258Z,45.88
2023-02-23T05:00:50.821Z,49.35
2023-02-23T05:03:23.433Z,45.20
2023-02-23T05:05:49.889Z,50.30
2023-02-23T05:08:21.337Z,52.57
2023-02-23T05:10:55.839Z,43.50
2023-02-23T05:13:22.259Z,47.70
2023-02-23T05:15:59.101Z,49.05
2023-02-23T05:18:26.428Z,48.22
2023-02-23T05:21:12.566Z,46.20
2023-02-23T05:23:41.130Z,47.08
2023-02-23T05:26:10.098Z,48.30
2023-02-23T05:28:38.606Z,47.47
2023-02-23T05:31:07.478Z,52.00
2023-02-23T05:33:35.490Z,49.90
2023-02-23T05:36:05.470Z,47.03
2023-02-23T05:38:46.306Z,44.00
2023-02-23T05:41:16.876Z,44.65
2023-02-23T05:43:52.387Z,47.70
2023-02-23T05:46:22.726Z,46.17
2023-02-23T05:49:01.345Z,43.35
2023-02-23T05:51:33.943Z,45.55
2023-02-23T05:54:01.238Z,43.95
2023-02-23T05:56:43.068Z,52.92
2023-02-23T05:59:14.211Z,49.00
2023-02-23T06:01:40.985Z,45.53
2023-02-23T06:04:23.376Z,42.85
2023-02-23T06:06:50.093Z,46.60
2023-02-23T06:09:18.554Z,46.85
2023-02-23T06:11:47.051Z,44.27
2023-02-23T06:14:13.729Z,41.38
2023-02-23T06:16:45.369Z,44.92
2023-02-23T06:19:11.984Z,44.13
2023-02-23T06:21:41.107Z,42.00
2023-02-23T06:24:07.595Z,41.33
2023-02-23T06:26:35.242Z,45.45
2023-02-23T06:29:02.700Z,38.28
2023-02-23T06:31:29.282Z,38.78
2023-02-23T06:33:57.824Z,37.33
2023-02-23T06:36:25.239Z,38.33
2023-02-23T06:38:57.048Z,42.65
2023-02-23T06:41:27.783Z,41.53
2023-02-23T06:43:55.624Z,39.08
2023-02-23T06:46:23.016Z,43.40
2023-02-23T06:48:49.449Z,44.73
2023-02-23T06:51:18.246Z,45.55
2023-02-23T06:53:44.792Z,40.28
2023-02-23T06:56:13.948Z,39.20
2023-02-23T06:58:43.045Z,37.53
2023-02-23T07:01:13.960Z,39.37
2023-02-23T07:03:40.394Z,41.08
2023-02-23T07:06:07.285Z,41.25
2023-02-23T07:08:40.002Z,39.55
2023-02-23T07:11:15.815Z,45.75
2023-02-23T07:13:42.684Z,38.73
2023-02-23T07:16:09.294Z,41.88
2023-02-23T07:18:36.906Z,43.20
2023-02-23T07:21:03.423Z,38.08
2023-02-23T07:23:31.460Z,45.08
2023-02-23T07:26:01.032Z,39.90
2023-02-23T07:28:28.773Z,41.05
2023-02-23T07:30:58.307Z,42.05
2023-02-23T07:33:25.243Z,44.53
2023-02-23T07:35:53.748Z,42.20
2023-02-23T07:38:20.160Z,35.27
2023-02-23T07:40:46.553Z,40.92
2023-02-23T07:43:14.004Z,39.03
2023-02-23T07:45:47.570Z,40.20
2023-02-23T07:48:14.474Z,43.30
2023-02-23T07:50:42.953Z,45.03
2023-02-23T07:53:09.764Z,45.42
2023-02-23T07:55:56.167Z,42.75
2023-02-23T07:58:22.602Z,42.60
2023-02-23T08:00:50.096Z,43.63
2023-02-23T08:03:16.468Z,44.10
2023-02-23T08:05:44.853Z,50.80
2023-02-23T08:08:12.021Z,45.22
2023-02-23T08:10:39.231Z,45.15
2023-02-23T08:13:06.051Z,46.50
2023-02-23T08:15:32.672Z,45.77
2023-02-23T08:17:59.073Z,48.55
2023-02-23T08:20:25.541Z,45.22
2023-02-23T08:22:55.767Z,43.67
2023-02-23T08:25:22.542Z,49.53
2023-02-23T08:27:52.054Z,47.77
2023-02-23T08:30:19.889Z,43.97
2023-02-23T08:32:46.415Z,42.85
2023-02-23T08:35:13.044Z,44.85
2023-02-23T08:37:39.670Z,41.45
2023-02-23T08:40:06.504Z,46.63
2023-02-23T08:42:32.897Z,42.00
2023-02-23T08:45:01.363Z,44.65
2023-02-23T08:47:28.045Z,41.58
2023-02-23T08:49:54.409Z,45.00
2023-02-23T08:52:21.512Z,41.53
2023-02-23T08:54:48.047Z,45.83
2023-02-23T08:57:14.572Z,42.45
2023-02-23T08:59:41.612Z,43.00
2023-02-23T09:02:12.596Z,40.67
2023-02-23T09:04:41.841Z,42.40
2023-02-23T09:07:13.069Z,41.35
2023-02-23T09:09:39.690Z,41.17
2023-02-23T09:12:06.256Z,36.88
2023-02-23T09:14:32.672Z,33.97
2023-02-23T09:16:59.175Z,44.53
2023-02-23T09:19:27.550Z,37.60
2023-02-23T09:21:54.286Z,33.65
2023-02-23T09:24:22.120Z,33.88
2023-02-23T09:26:49.200Z,36.63
2023-02-23T09:29:15.825Z,32.83
2023-02-23T09:31:43.678Z,32.08
2023-02-23T09:34:12.627Z,31.27
2023-02-23T09:36:39.129Z,34.50
2023-02-23T09:39:05.660Z,37.10
2023-02-23T09:41:56.014Z,29.93
2023-02-23T09:44:22.315Z,30.13
2023-02-23T09:47:21.278Z,30.70
2023-02-23T09:49:50.947Z,35.17
2023-02-23T09:52:22.328Z,33.85
2023-02-23T09:54:48.897Z,31.37
2023-02-23T09:57:19.987Z,32.65
2023-02-23T09:59:46.585Z,36.13
2023-02-23T10:02:19.377Z,37.13
2023-02-23T10:04:48.860Z,38.50
2023-02-23T10:07:30.053Z,31.93
2023-02-23T10:10:21.970Z,32.15
2023-02-23T10:13:04.250Z,33.78
2023-02-23T10:15:56.105Z,33.47
2023-02-23T10:18:46.788Z,29.23
2023-02-23T10:21:19.312Z,28.70
2023-02-23T10:23:56.539Z,32.42
2023-02-23T10:26:26.585Z,31.70
2023-02-23T10:28:56.008Z,28.45
2023-02-23T10:31:43.008Z,28.33
2023-02-23T10:34:18.142Z,28.57
2023-02-23T10:36:52.589Z,23.42
2023-02-23T10:39:19.287Z,25.13
2023-02-23T10:41:46.597Z,26.65
2023-02-23T10:44:21.269Z,24.85
2023-02-23T10:46:55.688Z,29.00
2023-02-23T10:49:30.373Z,28.67
2023-02-23T10:52:02.998Z,25.35
2023-02-23T10:54:45.657Z,23.67
2023-02-23T10:57:27.882Z,22.20
2023-02-23T11:00:15.937Z,25.73
2023-02-23T11:02:51.823Z,20.77
2023-02-23T11:05:50.491Z,23.45
2023-02-23T11:08:22.533Z,21.00
2023-02-23T11:11:09.395Z,21.73
2023-02-23T11:13:44.550Z,22.13
2023-02-23T11:16:30.437Z,21.20
2023-02-23T11:18:58.707Z,23.35
2023-02-23T11:21:39.011Z,22.30
2023-02-23T11:24:19.309Z,21.95
2023-02-23T11:26:48.762Z,20.27
2023-02-23T11:29:25.910Z,67.15
2023-02-23T11:31:58.796Z,33.45
2023-02-23T11:34:32.249Z,32.50
2023-02-23T11:37:08.299Z,36.58
2023-02-23T11:39:35.145Z,23.53
2023-02-23T11:42:20.887Z,20.98
2023-02-23T11:45:06.090Z,19.08
2023-02-23T11:47:38.689Z,16.77
2023-02-23T11:50:07.112Z,19.25
2023-02-23T11:52:36.446Z,20.10
2023-02-23T11:55:07.072Z,15.95
2023-02-23T11:57:35.694Z,15.57
2023-02-23T12:00:10.896Z,18.45
2023-02-23T12:03:07.952Z,20.98
2023-02-23T12:05:34.534Z,16.87
2023-02-23T12:08:15.972Z,20.90
2023-02-23T12:10:47.600Z,20.80
2023-02-23T12:13:27.891Z,20.83
2023-02-23T12:16:07.189Z,22.20
2023-02-23T12:18:40.256Z,18.73
2023-02-23T12:21:23.959Z,17.65
2023-02-23T12:23:54.953Z,20.55
2023-02-23T12:26:23.426Z,19.02
2023-02-23T12:28:58.662Z,18.83
2023-02-23T12:31:34.998Z,20.03
2023-02-23T12:34:18.293Z,19.70
2023-02-23T12:36:55.989Z,18.30
2023-02-23T12:39:35.026Z,23.65
2023-02-23T12:42:11.729Z,18.10
2023-02-23T12:44:47.000Z,17.77
2023-02-23T12:47:24.845Z,16.88
2023-02-23T12:50:07.533Z,20.33
2023-02-23T12:52:37.283Z,15.43
2023-02-23T12:55:09.444Z,21.65
2023-02-23T12:58:04.224Z,16.93
2023-02-23T13:00:58.335Z,19.17
2023-02-23T13:03:52.712Z,19.88
2023-02-23T13:06:36.928Z,16.00
2023-02-23T13:09:22.110Z,13.35
2023-02-23T13:11:56.756Z,15.13
2023-02-23T13:14:39.923Z,15.75
2023-02-23T13:17:25.751Z,15.95
2023-02-23T13:19:58.891Z,17.67
2023-02-23T13:22:46.373Z,14.15
2023-02-23T13:25:33.944Z,15.80
2023-02-23T13:28:01.992Z,15.93
2023-02-23T13:30:37.062Z,18.42
2023-02-23T13:33:14.575Z,18.65
2023-02-23T13:35:42.319Z,18.98
2023-02-23T13:38:25.799Z,17.73
2023-02-23T13:41:30.133Z,19.98
2023-02-23T13:44:07.924Z,16.20
2023-02-23T13:46:42.621Z,16.90
2023-02-23T13:49:51.141Z,17.90
2023-02-23T13:52:31.434Z,14.23
2023-02-23T13:55:03.774Z,16.90
2023-02-23T13:57:37.197Z,13.45
2023-02-23T14:00:04.482Z,15.93
2023-02-23T14:02:37.643Z,17.88
2023-02-23T14:05:30.817Z,20.50
2023-02-23T14:08:02.406Z,14.13
2023-02-23T14:10:37.945Z,15.93
2023-02-23T14:13:13.486Z,15.82
2023-02-23T14:15:44.347Z,15.32
2023-02-23T14:18:25.186Z,15.90
2023-02-23T14:21:18.568Z,14.75
2023-02-23T14:24:02.229Z,14.15
2023-02-23T14:26:28.567Z,14.65
2023-02-23T14:29:17.075Z,14.30
2023-02-23T14:32:03.609Z,14.27
2023-02-23T14:34:47.593Z,15.40
2023-02-23T14:37:27.940Z,15.73
2023-02-23T14:39:57.324Z,18.35
2023-02-23T14:42:27.034Z,22.38
2023-02-23T14:44:55.210Z,21.77
2023-02-23T14:47:27.329Z,18.52
2023-02-23T14:50:01.437Z,20.35
2023-02-23T14:52:41.436Z,22.42
2023-02-23T14:55:10.841Z,24.92
2023-02-23T14:57:39.349Z,23.60
2023-02-23T15:00:15.130Z,24.95
2023-02-23T15:02:55.488Z,28.92
2023-02-23T15:05:25.482Z,24.77
2023-02-23T15:07:54.019Z,31.20
2023-02-23T15:10:28.281Z,30.17
2023-02-23T15:12:55.841Z,29.17
2023-02-23T15:15:27.201Z,31.42
2023-02-23T15:17:58.078Z,28.17
2023-02-23T15:20:32.716Z,33.03
2023-02-23T15:23:02.795Z,19.60
2023-02-23T15:25:40.248Z,12.50
2023-02-23T15:28:29.524Z,12.77
2023-02-23T15:31:00.983Z,11.55
2023-02-23T15:33:30.984Z,11.45
2023-02-23T15:36:03.656Z,16.63
2023-02-23T15:38:43.594Z,19.15
2023-02-23T15:41:23.237Z,16.02
2023-02-23T15:43:49.742Z,16.65
2023-02-23T15:46:24.541Z,12.45
2023-02-23T15:48:53.751Z,12.53
2023-02-23T15:51:32.694Z,19.15
2023-02-23T15:54:01.524Z,15.38
2023-02-23T15:56:30.472Z,16.45
2023-02-23T15:59:02.658Z,14.00
2023-02-23T16:01:31.580Z,9.83
2023-02-23T16:04:13.039Z,12.98
2023-02-23T16:06:52.806Z,9.65
2023-02-23T16:09:24.039Z,10.40
2023-02-23T16:11:54.604Z,10.23
2023-02-23T16:14:22.652Z,7.50
2023-02-23T16:17:08.510Z,12.18
2023-02-23T16:19:40.717Z,13.35
2023-02-23T16:22:21.571Z,9.35
2023-02-23T16:24:58.046Z,15.27
2023-02-23T16:27:26.612Z,15.53
2023-02-23T16:30:06.659Z,14.80
2023-02-23T16:32:45.351Z,14.07
2023-02-23T16:35:19.519Z,16.58
2023-02-23T16:37:58.192Z,16.50
2023-02-23T16:40:25.305Z,19.37
2023-02-23T16:42:53.354Z,13.30
2023-02-23T16:45:21.258Z,15.15
2023-02-23T16:47:48.373Z,15.13
2023-02-23T16:50:23.048Z,10.57
2023-02-23T16:52:54.419Z,17.03
2023-02-23T16:55:26.394Z,10.80
2023-02-23T16:58:02.377Z,11.48
2023-02-23T17:00:31.620Z,13.75
2023-02-23T17:03:00.663Z,16.67
2023-02-23T17:05:29.161Z,15.87
2023-02-23T17:07:58.095Z,17.27
2023-02-23T17:10:30.547Z,15.35
2023-02-23T17:12:58.535Z,10.98
2023-02-23T17:15:29.098Z,15.02
2023-02-23T17:17:56.376Z,16.47
2023-02-23T17:20:25.840Z,13.85
2023-02-23T17:22:55.222Z,15.65
2023-02-23T17:25:24.342Z,16.65
2023-02-23T17:27:51.133Z,15.07
2023-02-23T17:30:17.798Z,13.80
2023-02-23T17:32:44.480Z,19.10
2023-02-23T17:35:11.394Z,11.18
2023-02-23T17:37:38.036Z,14.57
2023-02-23T17:40:09.778Z,11.32
2023-02-23T17:42:36.259Z,9.70
2023-02-23T17:45:06.313Z,11.95
2023-02-23T17:47:34.355Z,12.55
2023-02-23T17:50:01.699Z,13.45
2023-02-23T17:52:28.798Z,9.05
2023-02-23T17:54:55.633Z,9.43
2023-02-23T17:57:23.209Z,13.65
2023-02-23T17:59:49.843Z,12.65
2023-02-23T18:02:20.519Z,12.05
2023-02-23T18:04:48.374Z,13.68
2023-02-23T18:07:15.512Z,12.00
2023-02-23T18:09:42.048Z,10.77
2023-02-23T18:12:08.845Z,14.73
2023-02-23T18:14:35.639Z,10.60
2023-02-23T18:17:01.992Z,15.00
2023-02-23T18:19:28.453Z,14.33
2023-02-23T18:21:56.030Z,12.77
2023-02-23T18:24:27.429Z,12.45
2023-02-23T18:27:00.529Z,10.27
2023-02-23T18:29:32.018Z,11.82
2023-02-23T18:31:59.973Z,17.00
2023-02-23T18:34:28.705Z,14.63
2023-02-23T18:37:02.167Z,13.13
2023-02-23T18:39:31.041Z,13.68
2023-02-23T18:41:57.929Z,16.67
2023-02-23T18:44:24.382Z,14.23
2023-02-23T18:46:50.827Z,15.10
2023-02-23T18:49:20.721Z,19.77
2023-02-23T18:51:47.886Z,14.02
2023-02-23T18:54:16.896Z,10.55
2023-02-23T18:56:45.145Z,11.43
2023-02-23T18:59:12.257Z,15.45
2023-02-23T19:01:39.090Z,11.85
2023-02-23T19:04:08.038Z,8.80
2023-02-23T19:06:35.185Z,11.65
2023-02-23T19:09:04.157Z,17.37
2023-02-23T19:11:33.656Z,12.65
2023-02-23T19:14:06.260Z,5.78
2023-02-23T19:16:34.878Z,12.32
2023-02-23T19:19:03.560Z,9.13
2023-02-23T19:21:36.295Z,9.43
2023-02-23T19:24:05.418Z,6.38
2023-02-23T19:26:33.596Z,10.57
2023-02-23T19:29:00.652Z,8.88
2023-02-23T19:31:28.852Z,9.68
2023-02-23T19:33:57.482Z,7.83
2023-02-23T19:36:29.655Z,11.02
2023-02-23T19:39:06.133Z,9.27
2023-02-23T19:41:33.998Z,8.50
2023-02-23T19:44:00.555Z,10.65
2023-02-23T19:46:27.678Z,13.93
2023-02-23T19:48:54.583Z,12.00
2023-02-23T19:51:21.668Z,12.30
2023-02-23T19:53:48.498Z,8.70
2023-02-23T19:56:16.605Z,7.32
2023-02-23T19:58:46.478Z,7.57
2023-02-23T20:01:16.956Z,7.45
2023-02-23T20:03:45.338Z,9.68
2023-02-23T20:06:13.526Z,15.35
2023-02-23T20:08:41.518Z,12.38
2023-02-23T20:11:08.394Z,9.77
2023-02-23T20:13:35.628Z,9.85
2023-02-23T20:16:04.037Z,10.77
2023-02-23T20:18:30.534Z,17.63
2023-02-23T20:20:56.879Z,17.92
2023-02-23T20:23:23.286Z,16.67
2023-02-23T20:25:49.695Z,13.57
2023-02-23T20:28:16.133Z,15.20
2023-02-23T20:30:48.825Z,18.38
2023-02-23T20:33:15.486Z,20.67
2023-02-23T20:35:42.369Z,12.07
2023-02-23T20:38:08.886Z,15.25
2023-02-23T20:40:35.492Z,14.05
2023-02-23T20:43:01.858Z,11.95
2023-02-23T20:45:28.418Z,12.52
2023-02-23T20:47:55.613Z,14.47
2023-02-23T20:50:25.553Z,16.85
2023-02-23T20:52:52.004Z,18.67
2023-02-23T20:55:18.908Z,18.58
2023-02-23T20:57:47.344Z,19.10
2023-02-23T21:00:22.118Z,15.50
2023-02-23T21:02:55.263Z,12.55
2023-02-23T21:05:31.608Z,12.27
2023-02-23T21:08:04.050Z,16.40
2023-02-23T21:10:36.373Z,15.63
2023-02-23T21:13:12.001Z,14.30
2023-02-23T21:15:40.710Z,13.35
2023-02-23T21:18:10.136Z,15.50
2023-02-23T21:20:40.377Z,31.05
2023-02-23T21:23:07.888Z,23.90
2023-02-23T21:25:35.343Z,18.83
2023-02-23T21:28:05.814Z,20.75
2023-02-23T21:30:32.213Z,21.30
2023-02-23T21:33:00.142Z,21.92
2023-02-23T21:35:26.866Z,19.05
2023-02-23T21:37:53.364Z,12.20
2023-02-23T21:40:22.094Z,12.35
2023-02-23T21:42:49.632Z,12.70
2023-02-23T21:45:17.494Z,14.57
2023-02-23T21:47:45.970Z,14.27
2023-02-23T21:50:16.633Z,11.60
2023-02-23T21:52:45.408Z,10.55
2023-02-23T21:55:21.315Z,11.07
2023-02-23T21:57:48.125Z,7.22
2023-02-23T22:00:16.318Z,9.45
2023-02-23T22:02:46.245Z,11.53
2023-02-23T22:05:14.466Z,11.93
2023-02-23T22:07:41.431Z,8.15
2023-02-23T22:10:11.110Z,11.98
2023-02-23T22:12:37.514Z,9.73
2023-02-23T22:15:09.249Z,11.83
2023-02-23T22:17:38.544Z,9.77
2023-02-23T22:20:07.261Z,6.53
2023-02-23T22:22:36.183Z,10.43
2023-02-23T22:25:07.489Z,12.48
2023-02-23T22:27:33.870Z,7.77
2023-02-23T22:30:01.833Z,10.25
2023-02-23T22:32:32.691Z,12.68
2023-02-23T22:35:00.298Z,9.50
2023-02-23T22:37:31.533Z,7.90
2023-02-23T22:40:16.708Z,7.03
2023-02-23T22:42:49.762Z,7.57
2023-02-23T22:45:18.872Z,10.60
2023-02-23T22:47:45.403Z,6.22
2023-02-23T22:50:14.004Z,7.00
2023-02-23T22:52:40.773Z,13.60
2023-02-23T22:55:07.981Z,7.00
2023-02-23T22:57:34.355Z,8.02
2023-02-23T23:00:04.905Z,7.93
2023-02-23T23:02:36.089Z,8.25
2023-02-23T23:05:08.863Z,7.70
2023-02-23T23:07:35.426Z,10.30
2023-02-23T23:10:09.198Z,8.93
2023-02-23T23:12:38.104Z,8.63
2023-02-23T23:15:05.342Z,6.05
2023-02-23T23:17:35.856Z,7.40
2023-02-23T23:20:11.798Z,8.75
2023-02-23T23:22:45.534Z,18.85
2023-02-23T23:25:15.699Z,8.77
2023-02-23T23:27:44.828Z,12.80
2023-02-23T23:30:12.839Z,11.97
2023-02-23T23:32:40.687Z,9.23
2023-02-23T23:35:10.961Z,12.75
2023-02-23T23:37:39.798Z,9.85
2023-02-23T23:40:14.172Z,7.72
2023-02-23T23:42:45.829Z,8.63
2023-02-23T23:45:19.072Z,9.45
2023-02-23T23:47:46.645Z,8.32
2023-02-23T23:50:15.604Z,8.65
2023-02-23T23:52:45.946Z,14.27
2023-02-23T23:55:15.131Z,5.80
2023-02-23T23:57:42.183Z,8.25
